KEAN/EAN METAR and TAF weather

Enter ICAO airport designator
Station Type Date Time Source
KEAN METAR 2022/01/26 08:10 UTC NOAA

KEAN 260810Z AUTO 23013G18KT 10SM M06/M12 A3005 RMK AO2 T10611122


Station Type Date Time Source
KEAN Decoded METAR 2022/01/26 08:10 UTC NOAA

Station name not available
Jan 26, 2022 - 03:10 AM EST / 2022.01.26 0810 UTC
Wind: from the SW (230 degrees) at 15 MPH (13 KT) gusting to 21 MPH (18 KT):0
Visibility: 10 mile(s):0
Temperature: 21.0 F (-6.1 C)
Windchill: 6 F (-14 C):1
Dew Point: 10.0 F (-12.2 C)
Relative Humidity: 61%
Pressure (altimeter): 30.05 in. Hg (1017 hPa)
ob: KEAN 260810Z AUTO 23013G18KT 10SM M06/M12 A3005 RMK AO2 T10611122
cycle: 8

Station Type Date Time Source
KEAN TAF UTC NOAA

Error!

Example: see airport list